sensor_id;sensor_type;location;lat;lon;timestamp;P1;durP1;ratioP1;P2;durP2;ratioP2
4232;SDS011;2130;48.472;11.934;2023-05-24T00:00:49;40.87;;;3.00;;
4232;SDS011;2130;48.472;11.934;2023-05-24T00:03:18;37.90;;;2.80;;
4232;SDS011;2130;48.472;11.934;2023-05-24T00:05:47;40.40;;;2.70;;
4232;SDS011;2130;48.472;11.934;2023-05-24T00:08:15;40.60;;;2.77;;
4232;SDS011;2130;48.472;11.934;2023-05-24T00:10:45;39.57;;;2.43;;
4232;SDS011;2130;48.472;11.934;2023-05-24T00:13:14;37.90;;;2.50;;
4232;SDS011;2130;48.472;11.934;2023-05-24T00:15:42;40.03;;;3.10;;
4232;SDS011;2130;48.472;11.934;2023-05-24T00:18:10;36.97;;;2.80;;
4232;SDS011;2130;48.472;11.934;2023-05-24T00:20:38;38.83;;;2.50;;
4232;SDS011;2130;48.472;11.934;2023-05-24T00:23:06;38.03;;;2.40;;
4232;SDS011;2130;48.472;11.934;2023-05-24T00:25:35;37.77;;;2.97;;
4232;SDS011;2130;48.472;11.934;2023-05-24T00:28:04;37.40;;;3.00;;
4232;SDS011;2130;48.472;11.934;2023-05-24T00:30:32;39.33;;;2.80;;
4232;SDS011;2130;48.472;11.934;2023-05-24T00:33:00;38.63;;;2.40;;
4232;SDS011;2130;48.472;11.934;2023-05-24T00:35:29;38.97;;;2.67;;
4232;SDS011;2130;48.472;11.934;2023-05-24T00:37:57;38.10;;;2.57;;
4232;SDS011;2130;48.472;11.934;2023-05-24T00:40:25;38.10;;;2.97;;
4232;SDS011;2130;48.472;11.934;2023-05-24T00:42:53;40.23;;;2.57;;
4232;SDS011;2130;48.472;11.934;2023-05-24T00:45:22;40.60;;;2.97;;
4232;SDS011;2130;48.472;11.934;2023-05-24T00:47:51;38.60;;;2.47;;
4232;SDS011;2130;48.472;11.934;2023-05-24T00:50:19;38.57;;;2.67;;
4232;SDS011;2130;48.472;11.934;2023-05-24T00:52:47;39.90;;;2.70;;
4232;SDS011;2130;48.472;11.934;2023-05-24T00:55:17;38.73;;;2.50;;
4232;SDS011;2130;48.472;11.934;2023-05-24T00:57:45;40.03;;;2.70;;
4232;SDS011;2130;48.472;11.934;2023-05-24T01:00:14;38.43;;;2.87;;
4232;SDS011;2130;48.472;11.934;2023-05-24T01:02:43;37.63;;;2.57;;
4232;SDS011;2130;48.472;11.934;2023-05-24T01:05:14;38.50;;;2.70;;
4232;SDS011;2130;48.472;11.934;2023-05-24T01:07:44;39.33;;;2.50;;
4232;SDS011;2130;48.472;11.934;2023-05-24T01:10:20;37.70;;;3.07;;
4232;SDS011;2130;48.472;11.934;2023-05-24T01:12:55;40.93;;;3.03;;
4232;SDS011;2130;48.472;11.934;2023-05-24T01:15:30;39.73;;;2.50;;
4232;SDS011;2130;48.472;11.934;2023-05-24T01:18:04;37.80;;;2.47;;
4232;SDS011;2130;48.472;11.934;2023-05-24T01:20:34;39.43;;;2.60;;
4232;SDS011;2130;48.472;11.934;2023-05-24T01:23:06;41.00;;;2.77;;
4232;SDS011;2130;48.472;11.934;2023-05-24T01:25:44;38.60;;;2.40;;
4232;SDS011;2130;48.472;11.934;2023-05-24T01:28:16;38.60;;;2.50;;
4232;SDS011;2130;48.472;11.934;2023-05-24T01:30:45;40.80;;;2.60;;
4232;SDS011;2130;48.472;11.934;2023-05-24T01:33:14;38.50;;;2.73;;
4232;SDS011;2130;48.472;11.934;2023-05-24T01:35:42;38.93;;;2.73;;
4232;SDS011;2130;48.472;11.934;2023-05-24T01:38:11;38.70;;;2.87;;
4232;SDS011;2130;48.472;11.934;2023-05-24T01:40:41;38.27;;;2.70;;
4232;SDS011;2130;48.472;11.934;2023-05-24T01:43:13;40.00;;;2.80;;
4232;SDS011;2130;48.472;11.934;2023-05-24T01:45:47;36.90;;;2.70;;
4232;SDS011;2130;48.472;11.934;2023-05-24T01:48:22;38.47;;;2.90;;
4232;SDS011;2130;48.472;11.934;2023-05-24T01:50:57;38.23;;;2.73;;
4232;SDS011;2130;48.472;11.934;2023-05-24T01:53:32;40.20;;;3.00;;
4232;SDS011;2130;48.472;11.934;2023-05-24T01:56:01;37.97;;;2.20;;
4232;SDS011;2130;48.472;11.934;2023-05-24T01:58:30;42.10;;;3.30;;
4232;SDS011;2130;48.472;11.934;2023-05-24T02:01:00;38.50;;;2.57;;
4232;SDS011;2130;48.472;11.934;2023-05-24T02:03:28;38.97;;;2.80;;
4232;SDS011;2130;48.472;11.934;2023-05-24T02:05:58;36.67;;;3.17;;
4232;SDS011;2130;48.472;11.934;2023-05-24T02:08:26;37.60;;;3.30;;
4232;SDS011;2130;48.472;11.934;2023-05-24T02:10:54;39.17;;;3.07;;
4232;SDS011;2130;48.472;11.934;2023-05-24T02:13:22;38.23;;;2.80;;
4232;SDS011;2130;48.472;11.934;2023-05-24T02:15:50;39.67;;;3.13;;
4232;SDS011;2130;48.472;11.934;2023-05-24T02:18:20;37.20;;;3.30;;
4232;SDS011;2130;48.472;11.934;2023-05-24T02:20:49;38.10;;;3.10;;
4232;SDS011;2130;48.472;11.934;2023-05-24T02:23:17;39.00;;;3.00;;
4232;SDS011;2130;48.472;11.934;2023-05-24T02:25:45;38.10;;;3.00;;
4232;SDS011;2130;48.472;11.934;2023-05-24T02:28:13;40.23;;;3.00;;
4232;SDS011;2130;48.472;11.934;2023-05-24T02:30:41;38.77;;;2.77;;
4232;SDS011;2130;48.472;11.934;2023-05-24T02:33:10;46.47;;;3.47;;
4232;SDS011;2130;48.472;11.934;2023-05-24T02:35:40;39.37;;;2.33;;
4232;SDS011;2130;48.472;11.934;2023-05-24T02:38:08;39.70;;;2.87;;
4232;SDS011;2130;48.472;11.934;2023-05-24T02:40:39;39.83;;;2.80;;
4232;SDS011;2130;48.472;11.934;2023-05-24T02:43:08;39.50;;;3.00;;
4232;SDS011;2130;48.472;11.934;2023-05-24T02:45:36;40.33;;;2.67;;
4232;SDS011;2130;48.472;11.934;2023-05-24T02:48:04;42.00;;;2.70;;
4232;SDS011;2130;48.472;11.934;2023-05-24T02:50:32;41.97;;;2.77;;
4232;SDS011;2130;48.472;11.934;2023-05-24T02:53:03;40.57;;;2.20;;
4232;SDS011;2130;48.472;11.934;2023-05-24T02:55:32;40.77;;;2.70;;
4232;SDS011;2130;48.472;11.934;2023-05-24T02:58:00;39.60;;;2.50;;
4232;SDS011;2130;48.472;11.934;2023-05-24T03:00:30;40.53;;;2.80;;
4232;SDS011;2130;48.472;11.934;2023-05-24T03:02:58;40.43;;;2.57;;
4232;SDS011;2130;48.472;11.934;2023-05-24T03:05:28;39.70;;;2.27;;
4232;SDS011;2130;48.472;11.934;2023-05-24T03:07:56;39.90;;;2.20;;
4232;SDS011;2130;48.472;11.934;2023-05-24T03:10:26;41.87;;;2.70;;
4232;SDS011;2130;48.472;11.934;2023-05-24T03:12:54;39.30;;;2.07;;
4232;SDS011;2130;48.472;11.934;2023-05-24T03:15:22;39.67;;;2.43;;
4232;SDS011;2130;48.472;11.934;2023-05-24T03:17:51;40.63;;;2.20;;
4232;SDS011;2130;48.472;11.934;2023-05-24T03:20:19;39.43;;;1.97;;
4232;SDS011;2130;48.472;11.934;2023-05-24T03:22:50;40.53;;;2.27;;
4232;SDS011;2130;48.472;11.934;2023-05-24T03:25:18;41.10;;;2.43;;
4232;SDS011;2130;48.472;11.934;2023-05-24T03:27:47;40.00;;;1.93;;
4232;SDS011;2130;48.472;11.934;2023-05-24T03:30:16;39.97;;;2.17;;
4232;SDS011;2130;48.472;11.934;2023-05-24T03:32:51;41.10;;;2.47;;
4232;SDS011;2130;48.472;11.934;2023-05-24T03:35:19;41.50;;;2.07;;
4232;SDS011;2130;48.472;11.934;2023-05-24T03:37:47;39.70;;;1.97;;
4232;SDS011;2130;48.472;11.934;2023-05-24T03:40:16;40.20;;;1.90;;
4232;SDS011;2130;48.472;11.934;2023-05-24T03:42:55;40.30;;;2.17;;
4232;SDS011;2130;48.472;11.934;2023-05-24T03:45:37;41.00;;;1.87;;
4232;SDS011;2130;48.472;11.934;2023-05-24T03:48:05;39.93;;;2.27;;
4232;SDS011;2130;48.472;11.934;2023-05-24T03:50:34;40.77;;;2.03;;
4232;SDS011;2130;48.472;11.934;2023-05-24T03:53:02;40.20;;;2.30;;
4232;SDS011;2130;48.472;11.934;2023-05-24T03:55:30;40.63;;;2.50;;
4232;SDS011;2130;48.472;11.934;2023-05-24T03:58:00;42.70;;;2.73;;
4232;SDS011;2130;48.472;11.934;2023-05-24T04:00:28;39.40;;;2.13;;
4232;SDS011;2130;48.472;11.934;2023-05-24T04:02:56;39.97;;;2.27;;
4232;SDS011;2130;48.472;11.934;2023-05-24T04:05:27;42.20;;;2.60;;
4232;SDS011;2130;48.472;11.934;2023-05-24T04:07:55;39.90;;;2.60;;
4232;SDS011;2130;48.472;11.934;2023-05-24T04:10:23;41.60;;;2.40;;
4232;SDS011;2130;48.472;11.934;2023-05-24T04:12:52;41.43;;;2.07;;
4232;SDS011;2130;48.472;11.934;2023-05-24T04:15:23;40.10;;;2.00;;
4232;SDS011;2130;48.472;11.934;2023-05-24T04:17:52;41.53;;;2.17;;
4232;SDS011;2130;48.472;11.934;2023-05-24T04:20:21;41.13;;;2.13;;
4232;SDS011;2130;48.472;11.934;2023-05-24T04:22:51;40.87;;;1.97;;
4232;SDS011;2130;48.472;11.934;2023-05-24T04:25:19;40.93;;;2.13;;
4232;SDS011;2130;48.472;11.934;2023-05-24T04:27:48;40.87;;;2.10;;
4232;SDS011;2130;48.472;11.934;2023-05-24T04:30:16;41.83;;;2.30;;
4232;SDS011;2130;48.472;11.934;2023-05-24T04:32:45;40.50;;;2.07;;
4232;SDS011;2130;48.472;11.934;2023-05-24T04:35:14;41.27;;;2.10;;
4232;SDS011;2130;48.472;11.934;2023-05-24T04:37:42;42.63;;;2.37;;
4232;SDS011;2130;48.472;11.934;2023-05-24T04:40:11;41.63;;;2.17;;
4232;SDS011;2130;48.472;11.934;2023-05-24T04:42:39;39.97;;;2.03;;
4232;SDS011;2130;48.472;11.934;2023-05-24T04:45:07;42.23;;;2.47;;
4232;SDS011;2130;48.472;11.934;2023-05-24T04:47:36;41.10;;;2.47;;
4232;SDS011;2130;48.472;11.934;2023-05-24T04:50:06;41.17;;;2.33;;
4232;SDS011;2130;48.472;11.934;2023-05-24T04:52:35;40.73;;;2.13;;
4232;SDS011;2130;48.472;11.934;2023-05-24T04:55:03;39.67;;;2.03;;
4232;SDS011;2130;48.472;11.934;2023-05-24T04:57:32;43.50;;;1.93;;
4232;SDS011;2130;48.472;11.934;2023-05-24T05:00:00;43.13;;;2.80;;
4232;SDS011;2130;48.472;11.934;2023-05-24T05:02:30;40.80;;;2.23;;
4232;SDS011;2130;48.472;11.934;2023-05-24T05:04:59;41.20;;;2.37;;
4232;SDS011;2130;48.472;11.934;2023-05-24T05:07:28;40.40;;;2.30;;
4232;SDS011;2130;48.472;11.934;2023-05-24T05:10:09;47.50;;;2.60;;
4232;SDS011;2130;48.472;11.934;2023-05-24T05:12:37;41.37;;;2.37;;
4232;SDS011;2130;48.472;11.934;2023-05-24T05:15:06;41.97;;;2.87;;
4232;SDS011;2130;48.472;11.934;2023-05-24T05:17:35;40.23;;;2.00;;
4232;SDS011;2130;48.472;11.934;2023-05-24T05:20:04;40.13;;;2.23;;
4232;SDS011;2130;48.472;11.934;2023-05-24T05:22:33;40.50;;;1.87;;
4232;SDS011;2130;48.472;11.934;2023-05-24T05:25:01;40.70;;;2.17;;
4232;SDS011;2130;48.472;11.934;2023-05-24T05:27:31;40.13;;;2.20;;
4232;SDS011;2130;48.472;11.934;2023-05-24T05:29:59;40.77;;;2.07;;
4232;SDS011;2130;48.472;11.934;2023-05-24T05:32:28;40.13;;;1.93;;
4232;SDS011;2130;48.472;11.934;2023-05-24T05:34:56;39.97;;;2.30;;
4232;SDS011;2130;48.472;11.934;2023-05-24T05:37:25;42.43;;;2.20;;
4232;SDS011;2130;48.472;11.934;2023-05-24T05:39:53;39.50;;;2.30;;
4232;SDS011;2130;48.472;11.934;2023-05-24T05:42:21;41.53;;;2.43;;
4232;SDS011;2130;48.472;11.934;2023-05-24T05:44:50;39.43;;;2.23;;
4232;SDS011;2130;48.472;11.934;2023-05-24T05:47:19;39.17;;;1.97;;
4232;SDS011;2130;48.472;11.934;2023-05-24T05:49:47;40.20;;;2.23;;
4232;SDS011;2130;48.472;11.934;2023-05-24T05:52:15;38.17;;;2.17;;
4232;SDS011;2130;48.472;11.934;2023-05-24T05:54:43;40.37;;;2.20;;
4232;SDS011;2130;48.472;11.934;2023-05-24T05:57:11;39.60;;;2.17;;
4232;SDS011;2130;48.472;11.934;2023-05-24T05:59:39;40.43;;;2.50;;
4232;SDS011;2130;48.472;11.934;2023-05-24T06:02:08;40.83;;;2.23;;
4232;SDS011;2130;48.472;11.934;2023-05-24T06:04:38;41.60;;;2.13;;
4232;SDS011;2130;48.472;11.934;2023-05-24T06:07:06;38.93;;;2.37;;
4232;SDS011;2130;48.472;11.934;2023-05-24T06:09:34;43.93;;;2.50;;
4232;SDS011;2130;48.472;11.934;2023-05-24T06:12:02;38.83;;;2.37;;
4232;SDS011;2130;48.472;11.934;2023-05-24T06:14:31;39.70;;;1.97;;
4232;SDS011;2130;48.472;11.934;2023-05-24T06:17:00;40.60;;;2.23;;
4232;SDS011;2130;48.472;11.934;2023-05-24T06:19:29;39.70;;;2.40;;
4232;SDS011;2130;48.472;11.934;2023-05-24T06:21:58;39.37;;;2.17;;
4232;SDS011;2130;48.472;11.934;2023-05-24T06:24:26;39.50;;;2.27;;
4232;SDS011;2130;48.472;11.934;2023-05-24T06:26:55;38.37;;;1.97;;
4232;SDS011;2130;48.472;11.934;2023-05-24T06:29:23;39.37;;;2.27;;
4232;SDS011;2130;48.472;11.934;2023-05-24T06:31:51;38.43;;;2.50;;
4232;SDS011;2130;48.472;11.934;2023-05-24T06:34:19;41.47;;;2.10;;
4232;SDS011;2130;48.472;11.934;2023-05-24T06:36:49;38.70;;;2.07;;
4232;SDS011;2130;48.472;11.934;2023-05-24T06:39:18;40.70;;;2.13;;
4232;SDS011;2130;48.472;11.934;2023-05-24T06:41:46;40.07;;;2.20;;
4232;SDS011;2130;48.472;11.934;2023-05-24T06:44:22;40.27;;;2.47;;
4232;SDS011;2130;48.472;11.934;2023-05-24T06:46:57;39.60;;;2.23;;
4232;SDS011;2130;48.472;11.934;2023-05-24T06:49:26;37.00;;;2.33;;
4232;SDS011;2130;48.472;11.934;2023-05-24T06:51:55;40.57;;;2.50;;
4232;SDS011;2130;48.472;11.934;2023-05-24T06:54:24;39.40;;;2.40;;
4232;SDS011;2130;48.472;11.934;2023-05-24T06:56:52;38.30;;;2.30;;
4232;SDS011;2130;48.472;11.934;2023-05-24T06:59:21;39.10;;;2.57;;
4232;SDS011;2130;48.472;11.934;2023-05-24T07:01:49;38.00;;;2.53;;
4232;SDS011;2130;48.472;11.934;2023-05-24T07:04:24;38.83;;;2.30;;
4232;SDS011;2130;48.472;11.934;2023-05-24T07:06:54;38.73;;;2.60;;
4232;SDS011;2130;48.472;11.934;2023-05-24T07:09:24;37.90;;;2.27;;
4232;SDS011;2130;48.472;11.934;2023-05-24T07:11:52;37.10;;;2.40;;
4232;SDS011;2130;48.472;11.934;2023-05-24T07:14:20;36.20;;;2.30;;
4232;SDS011;2130;48.472;11.934;2023-05-24T07:16:51;45.13;;;3.23;;
4232;SDS011;2130;48.472;11.934;2023-05-24T07:19:20;39.03;;;3.27;;
4232;SDS011;2130;48.472;11.934;2023-05-24T07:21:48;36.93;;;3.40;;
4232;SDS011;2130;48.472;11.934;2023-05-24T07:24:19;39.17;;;3.63;;
4232;SDS011;2130;48.472;11.934;2023-05-24T07:26:47;34.60;;;3.10;;
4232;SDS011;2130;48.472;11.934;2023-05-24T07:29:15;37.90;;;3.37;;
4232;SDS011;2130;48.472;11.934;2023-05-24T07:31:44;36.27;;;3.77;;
4232;SDS011;2130;48.472;11.934;2023-05-24T07:34:12;36.10;;;3.37;;
4232;SDS011;2130;48.472;11.934;2023-05-24T07:36:40;39.03;;;4.00;;
4232;SDS011;2130;48.472;11.934;2023-05-24T07:39:08;36.70;;;3.03;;
4232;SDS011;2130;48.472;11.934;2023-05-24T07:41:38;37.13;;;3.90;;
4232;SDS011;2130;48.472;11.934;2023-05-24T07:44:06;37.57;;;3.20;;
4232;SDS011;2130;48.472;11.934;2023-05-24T07:46:34;33.97;;;3.77;;
4232;SDS011;2130;48.472;11.934;2023-05-24T07:49:02;37.30;;;3.40;;
4232;SDS011;2130;48.472;11.934;2023-05-24T07:51:30;35.90;;;3.83;;
4232;SDS011;2130;48.472;11.934;2023-05-24T07:53:59;35.73;;;3.47;;
4232;SDS011;2130;48.472;11.934;2023-05-24T07:56:27;37.43;;;4.37;;
4232;SDS011;2130;48.472;11.934;2023-05-24T07:58:57;34.77;;;3.83;;
4232;SDS011;2130;48.472;11.934;2023-05-24T08:01:30;35.47;;;3.73;;
4232;SDS011;2130;48.472;11.934;2023-05-24T08:03:58;33.67;;;4.17;;
4232;SDS011;2130;48.472;11.934;2023-05-24T08:06:26;35.63;;;3.90;;
4232;SDS011;2130;48.472;11.934;2023-05-24T08:08:54;34.00;;;4.33;;
4232;SDS011;2130;48.472;11.934;2023-05-24T08:11:22;35.87;;;4.40;;
4232;SDS011;2130;48.472;11.934;2023-05-24T08:13:51;36.00;;;3.47;;
4232;SDS011;2130;48.472;11.934;2023-05-24T08:16:20;36.80;;;3.97;;
4232;SDS011;2130;48.472;11.934;2023-05-24T08:18:49;32.33;;;4.57;;
4232;SDS011;2130;48.472;11.934;2023-05-24T08:21:20;34.80;;;4.10;;
4232;SDS011;2130;48.472;11.934;2023-05-24T08:23:49;33.40;;;4.87;;
4232;SDS011;2130;48.472;11.934;2023-05-24T08:26:17;34.07;;;4.97;;
4232;SDS011;2130;48.472;11.934;2023-05-24T08:28:46;33.13;;;4.70;;
4232;SDS011;2130;48.472;11.934;2023-05-24T08:31:15;35.20;;;4.00;;
4232;SDS011;2130;48.472;11.934;2023-05-24T08:33:46;34.40;;;5.40;;
4232;SDS011;2130;48.472;11.934;2023-05-24T08:36:16;34.90;;;4.60;;
4232;SDS011;2130;48.472;11.934;2023-05-24T08:38:44;32.10;;;4.57;;
4232;SDS011;2130;48.472;11.934;2023-05-24T08:41:12;37.20;;;6.10;;
4232;SDS011;2130;48.472;11.934;2023-05-24T08:43:40;32.40;;;5.63;;
4232;SDS011;2130;48.472;11.934;2023-05-24T08:46:09;32.40;;;4.97;;
4232;SDS011;2130;48.472;11.934;2023-05-24T08:48:41;36.63;;;6.17;;
4232;SDS011;2130;48.472;11.934;2023-05-24T08:51:14;33.30;;;5.07;;
4232;SDS011;2130;48.472;11.934;2023-05-24T08:53:42;33.90;;;5.53;;
4232;SDS011;2130;48.472;11.934;2023-05-24T08:56:15;32.10;;;5.70;;
4232;SDS011;2130;48.472;11.934;2023-05-24T08:58:44;32.60;;;5.53;;
4232;SDS011;2130;48.472;11.934;2023-05-24T09:01:13;32.50;;;6.47;;
4232;SDS011;2130;48.472;11.934;2023-05-24T09:03:41;32.70;;;5.53;;
4232;SDS011;2130;48.472;11.934;2023-05-24T09:06:10;30.37;;;5.60;;
4232;SDS011;2130;48.472;11.934;2023-05-24T09:08:41;32.77;;;4.77;;
4232;SDS011;2130;48.472;11.934;2023-05-24T09:11:10;33.00;;;4.87;;
4232;SDS011;2130;48.472;11.934;2023-05-24T09:13:38;32.07;;;4.80;;
4232;SDS011;2130;48.472;11.934;2023-05-24T09:16:07;31.10;;;4.77;;
4232;SDS011;2130;48.472;11.934;2023-05-24T09:18:35;33.87;;;5.30;;
4232;SDS011;2130;48.472;11.934;2023-05-24T09:21:03;32.47;;;5.50;;
4232;SDS011;2130;48.472;11.934;2023-05-24T09:23:31;34.23;;;5.20;;
4232;SDS011;2130;48.472;11.934;2023-05-24T09:26:06;32.93;;;5.10;;
4232;SDS011;2130;48.472;11.934;2023-05-24T09:28:35;36.40;;;6.20;;
4232;SDS011;2130;48.472;11.934;2023-05-24T09:31:04;31.70;;;5.23;;
4232;SDS011;2130;48.472;11.934;2023-05-24T09:33:34;33.90;;;5.50;;
4232;SDS011;2130;48.472;11.934;2023-05-24T09:36:03;30.90;;;6.80;;
4232;SDS011;2130;48.472;11.934;2023-05-24T09:38:32;33.37;;;5.27;;
4232;SDS011;2130;48.472;11.934;2023-05-24T09:41:03;32.73;;;5.60;;
4232;SDS011;2130;48.472;11.934;2023-05-24T09:43:33;34.30;;;5.60;;
4232;SDS011;2130;48.472;11.934;2023-05-24T09:46:02;35.50;;;5.50;;
4232;SDS011;2130;48.472;11.934;2023-05-24T09:48:31;31.97;;;5.70;;
4232;SDS011;2130;48.472;11.934;2023-05-24T09:51:02;34.47;;;6.27;;
4232;SDS011;2130;48.472;11.934;2023-05-24T09:53:31;32.73;;;5.07;;
4232;SDS011;2130;48.472;11.934;2023-05-24T09:56:02;33.20;;;5.50;;
4232;SDS011;2130;48.472;11.934;2023-05-24T09:58:31;33.10;;;5.40;;
4232;SDS011;2130;48.472;11.934;2023-05-24T10:01:04;34.73;;;5.43;;
4232;SDS011;2130;48.472;11.934;2023-05-24T10:03:34;32.00;;;5.90;;
4232;SDS011;2130;48.472;11.934;2023-05-24T10:06:04;31.30;;;5.93;;
4232;SDS011;2130;48.472;11.934;2023-05-24T10:08:33;33.73;;;6.40;;
4232;SDS011;2130;48.472;11.934;2023-05-24T10:11:02;30.90;;;5.90;;
4232;SDS011;2130;48.472;11.934;2023-05-24T10:13:32;30.37;;;6.80;;
4232;SDS011;2130;48.472;11.934;2023-05-24T10:16:02;31.40;;;6.97;;
4232;SDS011;2130;48.472;11.934;2023-05-24T10:18:30;31.43;;;6.67;;
4232;SDS011;2130;48.472;11.934;2023-05-24T10:20:58;32.10;;;6.50;;
4232;SDS011;2130;48.472;11.934;2023-05-24T10:23:29;30.13;;;6.63;;
4232;SDS011;2130;48.472;11.934;2023-05-24T10:25:59;33.93;;;5.50;;
4232;SDS011;2130;48.472;11.934;2023-05-24T10:28:34;30.80;;;6.03;;
4232;SDS011;2130;48.472;11.934;2023-05-24T10:31:06;31.70;;;6.80;;
4232;SDS011;2130;48.472;11.934;2023-05-24T10:33:38;31.30;;;6.00;;
4232;SDS011;2130;48.472;11.934;2023-05-24T10:36:08;32.10;;;4.90;;
4232;SDS011;2130;48.472;11.934;2023-05-24T10:38:38;29.67;;;6.27;;
4232;SDS011;2130;48.472;11.934;2023-05-24T10:41:07;30.90;;;5.23;;
4232;SDS011;2130;48.472;11.934;2023-05-24T10:43:37;32.03;;;5.80;;
4232;SDS011;2130;48.472;11.934;2023-05-24T10:46:07;32.20;;;7.50;;
4232;SDS011;2130;48.472;11.934;2023-05-24T10:48:37;33.73;;;6.27;;
4232;SDS011;2130;48.472;11.934;2023-05-24T10:54:09;33.53;;;5.33;;
4232;SDS011;2130;48.472;11.934;2023-05-24T10:56:39;31.80;;;5.53;;
4232;SDS011;2130;48.472;11.934;2023-05-24T10:59:10;31.37;;;5.97;;
4232;SDS011;2130;48.472;11.934;2023-05-24T11:01:55;31.53;;;5.07;;
4232;SDS011;2130;48.472;11.934;2023-05-24T11:04:25;31.30;;;5.83;;
4232;SDS011;2130;48.472;11.934;2023-05-24T11:06:55;31.70;;;5.63;;
4232;SDS011;2130;48.472;11.934;2023-05-24T11:09:26;33.43;;;6.40;;
4232;SDS011;2130;48.472;11.934;2023-05-24T11:11:55;33.17;;;5.60;;
4232;SDS011;2130;48.472;11.934;2023-05-24T11:14:27;32.03;;;4.40;;
4232;SDS011;2130;48.472;11.934;2023-05-24T11:16:57;31.30;;;5.40;;
4232;SDS011;2130;48.472;11.934;2023-05-24T11:19:30;33.67;;;5.67;;
4232;SDS011;2130;48.472;11.934;2023-05-24T11:22:00;30.90;;;5.40;;
4232;SDS011;2130;48.472;11.934;2023-05-24T11:24:31;36.43;;;6.47;;
4232;SDS011;2130;48.472;11.934;2023-05-24T11:27:00;31.03;;;5.90;;
4232;SDS011;2130;48.472;11.934;2023-05-24T11:29:30;32.10;;;5.40;;
4232;SDS011;2130;48.472;11.934;2023-05-24T11:32:01;31.70;;;5.30;;
4232;SDS011;2130;48.472;11.934;2023-05-24T11:34:30;31.53;;;5.67;;
4232;SDS011;2130;48.472;11.934;2023-05-24T11:36:58;33.80;;;5.17;;
4232;SDS011;2130;48.472;11.934;2023-05-24T11:39:30;30.30;;;6.00;;
4232;SDS011;2130;48.472;11.934;2023-05-24T11:41:58;30.83;;;6.30;;
4232;SDS011;2130;48.472;11.934;2023-05-24T11:44:34;31.53;;;6.47;;
4232;SDS011;2130;48.472;11.934;2023-05-24T11:47:05;29.70;;;5.60;;
4232;SDS011;2130;48.472;11.934;2023-05-24T11:49:34;30.10;;;5.80;;
4232;SDS011;2130;48.472;11.934;2023-05-24T11:52:02;28.33;;;6.10;;
4232;SDS011;2130;48.472;11.934;2023-05-24T11:54:30;31.73;;;6.83;;
4232;SDS011;2130;48.472;11.934;2023-05-24T11:57:00;29.60;;;7.13;;
4232;SDS011;2130;48.472;11.934;2023-05-24T11:59:29;32.30;;;7.17;;
4232;SDS011;2130;48.472;11.934;2023-05-24T12:01:59;30.30;;;6.73;;
4232;SDS011;2130;48.472;11.934;2023-05-24T12:04:28;30.80;;;6.50;;
4232;SDS011;2130;48.472;11.934;2023-05-24T12:06:57;26.77;;;5.30;;
4232;SDS011;2130;48.472;11.934;2023-05-24T12:09:25;29.93;;;6.87;;
4232;SDS011;2130;48.472;11.934;2023-05-24T12:11:54;30.67;;;6.17;;
4232;SDS011;2130;48.472;11.934;2023-05-24T12:14:23;29.50;;;6.60;;
4232;SDS011;2130;48.472;11.934;2023-05-24T12:16:53;32.30;;;5.80;;
4232;SDS011;2130;48.472;11.934;2023-05-24T12:19:24;30.60;;;6.47;;
4232;SDS011;2130;48.472;11.934;2023-05-24T12:22:00;30.70;;;6.67;;
4232;SDS011;2130;48.472;11.934;2023-05-24T12:24:29;31.90;;;6.50;;
4232;SDS011;2130;48.472;11.934;2023-05-24T12:26:58;30.93;;;6.17;;
4232;SDS011;2130;48.472;11.934;2023-05-24T12:29:31;32.60;;;7.83;;
4232;SDS011;2130;48.472;11.934;2023-05-24T12:31:59;27.93;;;6.70;;
4232;SDS011;2130;48.472;11.934;2023-05-24T12:34:29;31.03;;;6.27;;
4232;SDS011;2130;48.472;11.934;2023-05-24T12:36:58;30.93;;;7.63;;
4232;SDS011;2130;48.472;11.934;2023-05-24T12:39:27;29.40;;;6.40;;
4232;SDS011;2130;48.472;11.934;2023-05-24T12:41:57;30.43;;;6.70;;
4232;SDS011;2130;48.472;11.934;2023-05-24T12:44:28;38.00;;;8.43;;
4232;SDS011;2130;48.472;11.934;2023-05-24T12:46:57;33.83;;;7.83;;
4232;SDS011;2130;48.472;11.934;2023-05-24T12:49:25;29.33;;;6.63;;
4232;SDS011;2130;48.472;11.934;2023-05-24T12:51:55;29.37;;;7.03;;
4232;SDS011;2130;48.472;11.934;2023-05-24T12:54:24;28.63;;;6.80;;
4232;SDS011;2130;48.472;11.934;2023-05-24T12:56:53;27.63;;;5.87;;
4232;SDS011;2130;48.472;11.934;2023-05-24T12:59:24;29.53;;;6.77;;
4232;SDS011;2130;48.472;11.934;2023-05-24T13:01:52;29.20;;;7.37;;
4232;SDS011;2130;48.472;11.934;2023-05-24T13:04:21;28.10;;;6.03;;
4232;SDS011;2130;48.472;11.934;2023-05-24T13:06:52;29.20;;;7.97;;
4232;SDS011;2130;48.472;11.934;2023-05-24T13:09:21;31.50;;;7.60;;
4232;SDS011;2130;48.472;11.934;2023-05-24T13:11:51;28.93;;;7.80;;
4232;SDS011;2130;48.472;11.934;2023-05-24T13:14:20;30.63;;;8.20;;
4232;SDS011;2130;48.472;11.934;2023-05-24T13:16:48;30.53;;;8.33;;
4232;SDS011;2130;48.472;11.934;2023-05-24T13:19:16;28.53;;;7.23;;
4232;SDS011;2130;48.472;11.934;2023-05-24T13:21:45;32.13;;;7.17;;
4232;SDS011;2130;48.472;11.934;2023-05-24T13:24:13;30.63;;;7.47;;
4232;SDS011;2130;48.472;11.934;2023-05-24T13:26:44;31.37;;;7.33;;
4232;SDS011;2130;48.472;11.934;2023-05-24T13:29:13;29.37;;;6.57;;
4232;SDS011;2130;48.472;11.934;2023-05-24T13:31:44;29.63;;;6.53;;
4232;SDS011;2130;48.472;11.934;2023-05-24T13:34:12;30.50;;;7.57;;
4232;SDS011;2130;48.472;11.934;2023-05-24T13:36:41;29.53;;;6.73;;
4232;SDS011;2130;48.472;11.934;2023-05-24T13:39:09;28.03;;;6.67;;
4232;SDS011;2130;48.472;11.934;2023-05-24T13:41:41;28.73;;;6.40;;
4232;SDS011;2130;48.472;11.934;2023-05-24T13:44:12;26.10;;;7.00;;
4232;SDS011;2130;48.472;11.934;2023-05-24T13:46:40;27.20;;;9.23;;
4232;SDS011;2130;48.472;11.934;2023-05-24T13:49:09;26.97;;;7.73;;
4232;SDS011;2130;48.472;11.934;2023-05-24T13:51:38;25.83;;;7.23;;
4232;SDS011;2130;48.472;11.934;2023-05-24T13:54:06;25.90;;;6.10;;
4232;SDS011;2130;48.472;11.934;2023-05-24T13:56:35;27.50;;;7.30;;
4232;SDS011;2130;48.472;11.934;2023-05-24T13:59:04;26.40;;;6.77;;
4232;SDS011;2130;48.472;11.934;2023-05-24T14:01:34;27.20;;;7.63;;
4232;SDS011;2130;48.472;11.934;2023-05-24T14:04:04;25.53;;;6.17;;
4232;SDS011;2130;48.472;11.934;2023-05-24T14:06:33;25.43;;;6.80;;
4232;SDS011;2130;48.472;11.934;2023-05-24T14:09:03;26.83;;;7.07;;
4232;SDS011;2130;48.472;11.934;2023-05-24T14:11:33;24.97;;;5.50;;
4232;SDS011;2130;48.472;11.934;2023-05-24T14:14:01;26.63;;;5.93;;
4232;SDS011;2130;48.472;11.934;2023-05-24T14:16:34;25.03;;;5.83;;
4232;SDS011;2130;48.472;11.934;2023-05-24T14:19:03;24.60;;;6.13;;
4232;SDS011;2130;48.472;11.934;2023-05-24T14:21:31;25.80;;;5.40;;
4232;SDS011;2130;48.472;11.934;2023-05-24T14:23:59;25.13;;;4.53;;
4232;SDS011;2130;48.472;11.934;2023-05-24T14:26:27;23.93;;;5.70;;
4232;SDS011;2130;48.472;11.934;2023-05-24T14:28:56;23.83;;;5.20;;
4232;SDS011;2130;48.472;11.934;2023-05-24T14:31:24;27.40;;;6.23;;
4232;SDS011;2130;48.472;11.934;2023-05-24T14:33:54;24.93;;;5.30;;
4232;SDS011;2130;48.472;11.934;2023-05-24T14:36:22;23.80;;;5.20;;
4232;SDS011;2130;48.472;11.934;2023-05-24T14:38:50;27.57;;;4.30;;
4232;SDS011;2130;48.472;11.934;2023-05-24T14:41:18;25.33;;;5.00;;
4232;SDS011;2130;48.472;11.934;2023-05-24T14:43:48;24.53;;;5.70;;
4232;SDS011;2130;48.472;11.934;2023-05-24T14:46:16;23.80;;;4.97;;
4232;SDS011;2130;48.472;11.934;2023-05-24T14:48:44;25.10;;;4.67;;
4232;SDS011;2130;48.472;11.934;2023-05-24T14:51:14;24.63;;;6.77;;
4232;SDS011;2130;48.472;11.934;2023-05-24T14:53:42;25.20;;;5.00;;
4232;SDS011;2130;48.472;11.934;2023-05-24T14:56:10;23.10;;;4.30;;
4232;SDS011;2130;48.472;11.934;2023-05-24T14:58:40;23.27;;;4.50;;
4232;SDS011;2130;48.472;11.934;2023-05-24T15:01:08;24.43;;;5.90;;
4232;SDS011;2130;48.472;11.934;2023-05-24T15:03:36;26.70;;;7.10;;